Time;durP1;ratioP1;P1;durP2;ratioP2;P2;SDS_P1;SDS_P2;PMS_P1;PMS_P2;Temp;Humidity;BMP_temperature;BMP_pressure;BME280_temperature;BME280_humidity;BME280_pressure;Samples;Min_cycle;Max_cycle;Signal;HPM_P1;HPM_P2
2023/07/15 00:01:29;;;;;;;16.37;15.37;;;17.90;1.00;;;;;;5067531;28;21010;-55
2023/07/15 00:03:55;;;;;;;16.57;15.57;;;17.90;1.00;;;;;;5068235;28;20704;-50
2023/07/15 00:06:21;;;;;;;17.00;16.00;;;17.80;1.00;;;;;;5064578;28;20439;-52
2023/07/15 00:08:48;;;;;;;15.73;14.80;;;17.80;1.00;;;;;;5070927;28;20217;-55
2023/07/15 00:11:37;;;;;;;15.73;14.83;;;17.80;1.00;;;;;;5082793;28;20410;-45
2023/07/15 00:14:12;;;;;;;16.90;15.90;;;17.70;1.00;;;;;;5080169;28;20429;-45
2023/07/15 00:16:38;;;;;;;16.50;15.60;;;17.70;1.00;;;;;;5080498;28;20410;-50
2023/07/15 00:19:05;;;;;;;15.77;14.67;;;17.70;1.00;;;;;;5074247;28;20778;-51
2023/07/15 00:21:31;;;;;;;16.20;15.30;;;17.70;1.00;;;;;;5067169;28;20211;-55
2023/07/15 00:23:58;;;;;;;16.47;15.37;;;17.60;1.00;;;;;;5080215;28;20422;-53
2023/07/15 00:26:30;;;;;;;16.60;15.50;;;17.60;1.00;;;;;;5081034;28;20410;-51
2023/07/15 00:28:55;;;;;;;16.60;15.60;;;17.60;1.00;;;;;;5074299;28;20441;-50
2023/07/15 00:31:23;;;;;;;17.13;16.13;;;17.50;1.00;;;;;;5065743;28;20435;-55
2023/07/15 00:33:49;;;;;;;16.30;15.40;;;17.50;10.60;;;;;;5080453;28;20229;-53
2023/07/15 00:36:15;;;;;;;16.67;15.77;;;17.50;66.50;;;;;;5081862;28;20501;-49
2023/07/15 00:38:42;;;;;;;16.90;15.90;;;17.40;99.90;;;;;;5077640;28;20941;-41
2023/07/15 00:41:15;;;;;;;17.00;16.00;;;17.40;99.90;;;;;;5074936;28;20430;-46
2023/07/15 00:43:59;;;;;;;17.83;16.37;;;17.30;99.90;;;;;;5069471;28;20410;-43
2023/07/15 00:46:55;;;;;;;15.90;15.10;;;17.30;99.90;;;;;;5078894;28;20426;-44
2023/07/15 00:49:23;;;;;;;16.70;15.70;;;17.30;99.90;;;;;;5076410;28;20976;-42
2023/07/15 00:52:11;;;;;;;16.00;15.10;;;17.20;92.40;;;;;;5069725;28;21037;-43
2023/07/15 00:54:40;;;;;;;16.20;15.30;;;17.20;24.20;;;;;;5079745;28;20451;-46
2023/07/15 00:57:07;;;;;;;17.03;15.77;;;17.20;1.00;;;;;;5070829;28;20479;-44
2023/07/15 00:59:33;;;;;;;16.33;15.43;;;17.20;1.00;;;;;;5061671;28;20460;-44
2023/07/15 01:02:00;;;;;;;17.10;16.00;;;17.20;1.00;;;;;;5066510;28;20439;-44
2023/07/15 01:04:26;;;;;;;16.40;15.50;;;17.20;1.00;;;;;;5071925;28;20446;-44
2023/07/15 01:06:54;;;;;;;15.33;14.53;;;17.20;1.00;;;;;;5080398;28;20418;-43
2023/07/15 01:09:20;;;;;;;17.33;16.13;;;17.20;1.00;;;;;;5071173;28;20964;-45
2023/07/15 01:11:45;;;;;;;16.33;15.30;;;17.20;1.00;;;;;;5074473;28;20502;-45
2023/07/15 01:14:12;;;;;;;16.00;14.80;;;17.20;13.00;;;;;;5079865;28;20589;-45
2023/07/15 01:16:39;;;;;;;15.40;14.50;;;17.10;40.90;;;;;;5076922;28;20189;-42
2023/07/15 01:19:05;;;;;;;16.57;15.47;;;17.10;99.90;;;;;;5071702;28;20443;-47
2023/07/15 01:21:34;;;;;;;16.60;15.60;;;17.10;99.90;;;;;;5073158;28;20465;-43
2023/07/15 01:24:00;;;;;;;16.80;15.90;;;17.10;99.90;;;;;;5063295;28;20714;-43
2023/07/15 01:26:26;;;;;;;16.83;15.80;;;17.00;99.90;;;;;;5072671;28;21053;-46
2023/07/15 01:28:51;;;;;;;16.17;15.27;;;16.90;99.90;;;;;;5079800;28;20430;-47
2023/07/15 01:31:19;;;;;;;16.67;15.67;;;16.90;99.90;;;;;;5076067;28;20185;-51
2023/07/15 01:33:47;;;;;;;17.30;16.30;;;16.80;99.90;;;;;;5079263;28;20184;-43
2023/07/15 01:36:13;;;;;;;16.77;15.67;;;16.80;99.90;;;;;;5079832;28;20492;-47
2023/07/15 01:38:40;;;;;;;16.87;15.87;;;16.70;99.90;;;;;;5064989;28;20466;-44
2023/07/15 01:41:06;;;;;;;16.27;15.37;;;16.70;99.90;;;;;;5065909;28;20187;-42
2023/07/15 01:43:32;;;;;;;16.43;15.23;;;16.70;99.90;;;;;;5077605;28;20912;-44
2023/07/15 01:45:58;;;;;;;16.80;15.63;;;16.70;99.90;;;;;;5080736;28;20415;-44
2023/07/15 01:48:25;;;;;;;16.90;15.90;;;16.60;99.90;;;;;;5078418;28;20513;-42
2023/07/15 01:50:51;;;;;;;16.97;15.77;;;16.60;99.90;;;;;;5079174;28;20544;-45
2023/07/15 01:53:17;;;;;;;16.70;15.80;;;16.60;99.90;;;;;;5077011;28;20890;-43
2023/07/15 01:55:42;;;;;;;15.80;14.90;;;16.50;99.90;;;;;;5072642;28;20449;-43
2023/07/15 01:58:08;;;;;;;16.03;15.10;;;16.50;99.90;;;;;;5073364;28;20228;-46
2023/07/15 02:00:34;;;;;;;16.63;15.53;;;16.50;99.90;;;;;;5067135;28;20269;-44
2023/07/15 02:02:59;;;;;;;15.37;14.47;;;16.50;99.90;;;;;;5074690;28;20533;-43
2023/07/15 02:05:25;;;;;;;16.27;15.27;;;16.50;99.90;;;;;;5067802;28;20219;-43
2023/07/15 02:07:51;;;;;;;16.30;15.40;;;16.50;99.90;;;;;;5057604;28;20671;-44
2023/07/15 02:10:17;;;;;;;16.60;15.60;;;16.40;99.90;;;;;;5062777;28;20223;-47
2023/07/15 02:12:43;;;;;;;16.43;15.33;;;16.40;99.90;;;;;;5071286;28;20190;-44
2023/07/15 02:15:09;;;;;;;16.47;15.37;;;16.40;99.90;;;;;;5073795;28;20947;-49
2023/07/15 02:17:34;;;;;;;16.33;15.33;;;16.40;99.90;;;;;;5080189;28;20230;-47
2023/07/15 02:20:00;;;;;;;15.97;15.10;;;16.40;99.90;;;;;;5067249;28;20296;-49
2023/07/15 02:22:26;;;;;;;16.50;15.60;;;16.40;99.90;;;;;;5080168;28;20194;-52
2023/07/15 02:24:51;;;;;;;15.73;14.83;;;16.40;99.90;;;;;;5069922;28;20729;-52
2023/07/15 02:27:17;;;;;;;16.57;15.60;;;16.40;99.90;;;;;;5078460;28;20188;-53
2023/07/15 02:29:44;;;;;;;16.50;15.40;;;16.30;99.90;;;;;;5077310;28;20706;-50
2023/07/15 02:32:09;;;;;;;16.90;15.90;;;16.30;99.90;;;;;;5079325;28;20729;-49
2023/07/15 02:34:35;;;;;;;15.70;14.80;;;16.30;99.90;;;;;;5071348;28;20431;-51
2023/07/15 02:37:01;;;;;;;16.13;15.23;;;16.30;99.90;;;;;;5080264;28;20204;-50
2023/07/15 02:39:27;;;;;;;16.17;15.20;;;16.30;99.90;;;;;;5074374;28;20189;-50
2023/07/15 02:41:52;;;;;;;16.40;15.40;;;16.30;1.00;;;;;;5079431;28;20188;-51
2023/07/15 02:44:18;;;;;;;16.30;15.30;;;16.30;1.00;;;;;;5069874;28;20467;-51
2023/07/15 02:46:43;;;;;;;17.30;16.23;;;16.20;1.00;;;;;;5078165;28;20185;-51
2023/07/15 02:49:09;;;;;;;16.50;15.50;;;16.20;1.00;;;;;;5072883;28;20283;-52
2023/07/15 02:51:34;;;;;;;17.17;16.17;;;16.10;1.00;;;;;;5075418;28;20567;-48
2023/07/15 02:54:01;;;;;;;16.90;15.90;;;16.10;1.00;;;;;;5067870;28;20608;-46
2023/07/15 02:56:27;;;;;;;17.00;15.93;;;16.10;1.00;;;;;;5078295;28;20180;-51
2023/07/15 02:58:54;;;;;;;17.33;16.00;;;16.10;1.00;;;;;;5067570;28;20844;-53
2023/07/15 03:01:20;;;;;;;16.70;15.80;;;16.10;1.00;;;;;;5074399;28;20426;-53
2023/07/15 03:03:45;;;;;;;16.93;15.97;;;16.10;2.50;;;;;;5076524;28;20494;-50
2023/07/15 03:06:12;;;;;;;16.90;15.90;;;16.10;1.00;;;;;;5079188;28;20755;-51
2023/07/15 03:08:38;;;;;;;17.17;16.17;;;16.10;1.00;;;;;;5079560;28;20196;-49
2023/07/15 03:11:07;;;;;;;17.40;16.20;;;16.10;1.00;;;;;;5075370;28;20573;-50
2023/07/15 03:13:33;;;;;;;16.37;15.47;;;16.10;26.60;;;;;;5079322;28;20418;-53
2023/07/15 03:15:58;;;;;;;16.57;15.57;;;16.00;1.00;;;;;;5075300;28;20488;-53
2023/07/15 03:18:25;;;;;;;16.60;15.40;;;16.10;10.30;;;;;;5079256;28;20543;-50
2023/07/15 03:20:52;;;;;;;15.93;15.03;;;16.00;29.00;;;;;;5068174;28;20181;-52
2023/07/15 03:23:18;;;;;;;16.43;15.53;;;16.10;85.30;;;;;;5078989;28;20909;-50
2023/07/15 03:25:44;;;;;;;16.40;15.50;;;16.10;99.90;;;;;;5072496;28;20470;-49
2023/07/15 03:28:11;;;;;;;16.87;15.77;;;16.10;99.90;;;;;;5072348;28;20434;-49
2023/07/15 03:30:37;;;;;;;16.63;15.63;;;16.00;99.90;;;;;;5077533;28;20357;-48
2023/07/15 03:33:05;;;;;;;16.60;15.50;;;16.00;99.90;;;;;;5077888;28;20501;-49
2023/07/15 03:35:30;;;;;;;17.50;16.40;;;16.00;99.90;;;;;;5067355;28;20315;-46
2023/07/15 03:37:56;;;;;;;15.90;15.00;;;16.00;99.90;;;;;;5079164;28;20529;-53
2023/07/15 03:40:22;;;;;;;15.93;14.93;;;16.00;99.90;;;;;;5076265;28;20538;-53
2023/07/15 03:42:47;;;;;;;16.80;15.80;;;16.00;99.90;;;;;;5078994;28;20199;-48
2023/07/15 03:45:13;;;;;;;15.53;14.73;;;16.00;99.90;;;;;;5080037;28;20750;-48
2023/07/15 03:47:39;;;;;;;16.23;15.33;;;16.10;99.90;;;;;;5080005;28;20226;-47
2023/07/15 03:50:06;;;;;;;16.80;15.80;;;16.10;99.90;;;;;;5076107;28;20263;-44
2023/07/15 03:52:32;;;;;;;16.73;15.73;;;16.10;99.90;;;;;;5083042;28;20211;-45
2023/07/15 03:54:58;;;;;;;16.87;15.70;;;16.10;99.90;;;;;;5075190;28;20903;-51
2023/07/15 03:57:25;;;;;;;16.90;15.90;;;16.20;44.10;;;;;;5069410;28;20434;-49
2023/07/15 03:59:51;;;;;;;16.30;15.30;;;16.20;21.10;;;;;;5064731;28;20446;-45
2023/07/15 04:02:17;;;;;;;16.20;15.20;;;16.20;1.00;;;;;;5068246;28;20458;-48
2023/07/15 04:04:43;;;;;;;16.77;15.67;;;16.20;1.00;;;;;;5065750;28;20188;-52
2023/07/15 04:07:09;;;;;;;16.27;15.30;;;16.20;1.00;;;;;;5081359;28;20195;-47
2023/07/15 04:09:36;;;;;;;16.00;15.07;;;16.20;1.00;;;;;;5065629;28;20972;-48
2023/07/15 04:12:02;;;;;;;17.30;16.20;;;16.30;1.00;;;;;;5080303;28;20718;-49
2023/07/15 04:14:28;;;;;;;15.90;15.00;;;16.30;1.00;;;;;;5079072;28;20448;-49
2023/07/15 04:16:53;;;;;;;15.70;14.87;;;16.40;1.00;;;;;;5075536;28;20781;-51
2023/07/15 04:19:19;;;;;;;16.80;15.60;;;16.40;1.00;;;;;;5077925;28;20191;-46
2023/07/15 04:21:45;;;;;;;16.53;15.50;;;16.50;1.00;;;;;;5081909;28;20591;-50
2023/07/15 04:24:10;;;;;;;16.20;15.30;;;16.50;86.60;;;;;;5075739;28;20196;-49
2023/07/15 04:26:36;;;;;;;16.20;15.20;;;16.50;1.00;;;;;;5073437;28;20203;-43
2023/07/15 04:29:03;;;;;;;16.60;15.70;;;16.60;99.90;;;;;;5063704;28;20389;-47
2023/07/15 04:31:28;;;;;;;16.37;15.40;;;16.70;1.00;;;;;;5082274;28;20186;-54
2023/07/15 04:33:54;;;;;;;16.17;15.27;;;16.70;99.90;;;;;;5065932;28;20555;-49
2023/07/15 04:36:21;;;;;;;16.93;15.83;;;16.80;93.50;;;;;;5082054;28;20245;-49
2023/07/15 04:38:47;;;;;;;15.90;14.73;;;16.90;99.90;;;;;;5076460;28;20182;-47
2023/07/15 04:41:12;;;;;;;15.60;14.80;;;17.00;99.90;;;;;;5081816;28;20460;-52
2023/07/15 04:43:38;;;;;;;15.60;14.60;;;17.10;99.90;;;;;;5079174;28;20347;-48
2023/07/15 04:46:05;;;;;;;16.17;15.13;;;17.20;99.90;;;;;;5081531;28;20665;-49
2023/07/15 04:48:31;;;;;;;15.97;15.07;;;17.30;99.90;;;;;;5078232;28;20571;-56
2023/07/15 04:50:56;;;;;;;15.67;14.67;;;17.40;99.90;;;;;;5063419;28;20463;-52
2023/07/15 04:53:23;;;;;;;15.80;14.90;;;17.50;99.90;;;;;;5078494;28;20233;-48
2023/07/15 04:55:49;;;;;;;15.63;14.83;;;17.60;99.90;;;;;;5060291;28;20541;-49
2023/07/15 04:58:17;;;;;;;15.87;14.87;;;17.70;99.90;;;;;;5072752;28;20416;-44
2023/07/15 05:00:44;;;;;;;15.20;14.40;;;17.80;99.90;;;;;;5064231;28;20435;-52
2023/07/15 05:03:09;;;;;;;16.40;15.40;;;17.90;99.90;;;;;;5067537;28;20458;-49
2023/07/15 05:05:35;;;;;;;15.53;14.63;;;18.10;99.90;;;;;;5081506;28;20466;-53
2023/07/15 05:08:09;;;;;;;14.93;14.13;;;18.20;99.90;;;;;;5073799;28;20238;-49
2023/07/15 05:10:36;;;;;;;15.07;14.23;;;18.30;99.90;;;;;;5071370;28;20302;-49
2023/07/15 05:13:01;;;;;;;15.77;14.53;;;18.40;99.90;;;;;;5075615;28;20431;-53
2023/07/15 05:15:28;;;;;;;15.47;14.67;;;18.60;99.90;;;;;;5067692;28;20421;-50
2023/07/15 05:17:54;;;;;;;15.23;14.20;;;18.80;99.90;;;;;;5077181;28;20172;-47
2023/07/15 05:20:19;;;;;;;15.10;14.30;;;18.90;99.60;;;;;;5065079;28;20450;-51
2023/07/15 05:22:45;;;;;;;14.97;14.17;;;19.10;99.20;;;;;;5068222;28;20193;-50
2023/07/15 05:25:12;;;;;;;15.13;14.17;;;19.20;98.60;;;;;;5071733;28;20225;-55
2023/07/15 05:27:38;;;;;;;15.07;14.20;;;19.40;98.00;;;;;;5071916;28;20431;-46
2023/07/15 05:30:04;;;;;;;15.47;14.57;;;19.70;97.50;;;;;;5080977;28;20469;-50
2023/07/15 05:32:30;;;;;;;15.07;14.17;;;19.80;96.80;;;;;;5069750;28;20607;-50
2023/07/15 05:34:55;;;;;;;15.60;14.43;;;20.00;96.30;;;;;;5078318;28;20557;-52
2023/07/15 05:37:21;;;;;;;15.10;14.30;;;20.20;95.60;;;;;;5078200;28;20649;-52
2023/07/15 05:39:47;;;;;;;15.13;14.33;;;20.30;95.10;;;;;;5080817;28;20204;-48
2023/07/15 05:42:12;;;;;;;13.80;13.07;;;20.40;94.50;;;;;;5064756;28;20181;-50
2023/07/15 05:44:38;;;;;;;14.70;13.90;;;20.70;93.70;;;;;;5070908;28;20189;-49
2023/07/15 05:47:04;;;;;;;14.80;14.00;;;20.80;93.40;;;;;;5067841;28;21175;-49
2023/07/15 05:49:29;;;;;;;13.90;13.20;;;20.90;92.70;;;;;;5061379;28;20212;-49
2023/07/15 05:51:55;;;;;;;14.10;13.40;;;21.10;92.30;;;;;;5058843;28;20173;-53
2023/07/15 05:54:20;;;;;;;14.80;13.80;;;21.20;92.00;;;;;;5063616;28;20191;-49
2023/07/15 05:56:46;;;;;;;14.93;13.93;;;21.30;91.50;;;;;;5080403;28;20263;-48
2023/07/15 05:59:12;;;;;;;14.63;13.83;;;21.50;90.90;;;;;;5071990;28;20215;-52
2023/07/15 06:01:37;;;;;;;14.03;13.33;;;21.50;90.80;;;;;;5071549;28;20189;-44
2023/07/15 06:04:06;;;;;;;14.77;13.87;;;21.70;89.90;;;;;;5076539;28;20298;-52
2023/07/15 06:06:31;;;;;;;14.33;13.53;;;21.80;89.50;;;;;;5079607;28;20554;-51
2023/07/15 06:08:57;;;;;;;14.20;13.30;;;21.90;88.20;;;;;;5078766;28;20448;-45
2023/07/15 06:11:23;;;;;;;14.40;13.60;;;22.00;86.90;;;;;;5067791;28;20212;-45
2023/07/15 06:13:48;;;;;;;14.23;13.33;;;22.20;87.10;;;;;;5065063;28;20208;-51
2023/07/15 06:16:14;;;;;;;13.70;12.90;;;22.20;86.50;;;;;;5071824;28;20667;-48
2023/07/15 06:18:39;;;;;;;14.13;13.40;;;22.30;85.40;;;;;;5076435;28;20179;-46
2023/07/15 06:21:07;;;;;;;13.50;12.70;;;22.40;84.90;;;;;;5062001;28;20651;-45
2023/07/15 06:23:33;;;;;;;14.57;13.87;;;22.50;84.70;;;;;;5072503;28;20706;-49
2023/07/15 06:25:59;;;;;;;14.57;13.77;;;22.60;84.30;;;;;;5067649;28;20478;-47
2023/07/15 06:28:24;;;;;;;14.17;13.27;;;22.60;83.00;;;;;;5060091;28;20269;-45
2023/07/15 06:30:59;;;;;;;13.87;13.17;;;22.70;82.20;;;;;;5077191;28;20211;-42
2023/07/15 06:33:24;;;;;;;13.93;13.23;;;22.80;81.60;;;;;;5063534;28;20440;-49
2023/07/15 06:35:50;;;;;;;13.70;13.00;;;22.90;81.70;;;;;;5079290;28;20414;-45
2023/07/15 06:38:15;;;;;;;13.70;12.90;;;23.00;81.00;;;;;;5076997;28;20711;-47
2023/07/15 06:40:41;;;;;;;13.40;12.40;;;23.10;80.60;;;;;;5058012;28;20224;-45
2023/07/15 06:43:07;;;;;;;14.30;13.40;;;23.20;80.40;;;;;;5045200;28;20937;-43
2023/07/15 06:45:35;;;;;;;14.47;13.30;;;23.20;79.60;;;;;;5063799;28;20258;-45
2023/07/15 06:48:01;;;;;;;14.50;13.60;;;23.40;79.60;;;;;;5060433;28;20173;-43
2023/07/15 06:50:28;;;;;;;13.90;13.10;;;23.50;79.10;;;;;;5061227;28;21172;-49
2023/07/15 06:52:53;;;;;;;13.93;13.13;;;23.60;79.00;;;;;;5060652;28;20207;-44
2023/07/15 06:55:19;;;;;;;13.60;12.90;;;23.70;78.80;;;;;;5061292;28;20412;-42
2023/07/15 06:57:44;;;;;;;14.07;13.17;;;23.80;76.90;;;;;;5058647;28;20259;-45
2023/07/15 07:00:10;;;;;;;13.83;13.13;;;23.90;75.50;;;;;;5060860;28;20189;-48
2023/07/15 07:02:36;;;;;;;13.83;13.03;;;24.00;74.70;;;;;;5072654;28;20193;-49
2023/07/15 07:05:02;;;;;;;14.43;13.60;;;24.10;74.30;;;;;;5061985;28;20447;-48
2023/07/15 07:07:27;;;;;;;12.30;11.70;;;24.20;73.40;;;;;;5067201;28;20191;-45
2023/07/15 07:09:53;;;;;;;13.90;13.07;;;24.30;72.40;;;;;;5068522;28;20204;-42
2023/07/15 07:12:19;;;;;;;14.07;13.27;;;24.50;72.70;;;;;;5071424;28;20211;-48
2023/07/15 07:14:44;;;;;;;13.50;12.70;;;24.50;72.90;;;;;;5079150;28;20741;-42
2023/07/15 07:17:10;;;;;;;13.30;12.60;;;24.70;72.60;;;;;;5079334;28;20524;-48
2023/07/15 07:19:36;;;;;;;14.03;13.23;;;24.80;71.80;;;;;;5068456;28;20219;-44
2023/07/15 07:22:01;;;;;;;13.90;13.20;;;24.90;70.50;;;;;;5071754;28;20176;-43
2023/07/15 07:24:27;;;;;;;13.33;12.53;;;25.10;69.00;;;;;;5078753;28;20301;-43
2023/07/15 07:26:53;;;;;;;13.90;13.10;;;25.10;69.00;;;;;;5078578;28;20522;-44
2023/07/15 07:29:19;;;;;;;13.63;12.87;;;25.30;68.00;;;;;;5079279;28;20208;-44
2023/07/15 07:31:45;;;;;;;13.80;13.10;;;25.40;67.90;;;;;;5079123;28;20207;-44
2023/07/15 07:34:11;;;;;;;12.90;12.30;;;25.50;67.80;;;;;;5072175;28;20414;-46
2023/07/15 07:36:36;;;;;;;13.87;13.07;;;25.60;66.10;;;;;;5079261;28;20634;-44
2023/07/15 07:39:02;;;;;;;13.43;12.63;;;25.80;66.00;;;;;;5078709;28;20176;-47
2023/07/15 07:41:27;;;;;;;13.10;12.50;;;25.90;65.10;;;;;;5070262;28;20185;-43
2023/07/15 07:43:53;;;;;;;14.03;13.33;;;26.00;63.00;;;;;;5075218;28;20635;-48
2023/07/15 07:46:18;;;;;;;14.00;13.03;;;26.10;62.40;;;;;;5079186;28;20494;-44
2023/07/15 07:48:44;;;;;;;14.23;13.53;;;26.30;62.60;;;;;;5079222;28;20172;-44
2023/07/15 07:51:10;;;;;;;13.97;13.27;;;26.50;61.80;;;;;;5068462;28;20327;-47
2023/07/15 07:53:35;;;;;;;14.37;13.67;;;26.60;59.70;;;;;;5074553;28;20631;-47
2023/07/15 07:56:01;;;;;;;12.77;11.97;;;26.70;59.40;;;;;;5078884;28;20189;-44
2023/07/15 07:58:27;;;;;;;13.00;12.40;;;26.80;59.70;;;;;;5079176;28;20189;-43
2023/07/15 08:00:52;;;;;;;13.10;12.30;;;27.00;58.90;;;;;;5079441;28;20191;-45
2023/07/15 08:03:18;;;;;;;13.73;12.80;;;27.10;58.10;;;;;;5078645;28;20468;-43
2023/07/15 08:05:45;;;;;;;13.33;12.53;;;27.30;58.20;;;;;;5078582;28;20188;-43
2023/07/15 08:08:12;;;;;;;13.50;12.80;;;27.50;57.10;;;;;;5078713;28;20195;-44
2023/07/15 08:10:38;;;;;;;13.27;12.43;;;27.70;56.70;;;;;;5078678;28;20477;-47
2023/07/15 08:13:05;;;;;;;13.43;12.53;;;27.80;56.50;;;;;;5078628;28;20447;-43
2023/07/15 08:15:32;;;;;;;13.73;12.93;;;28.00;55.90;;;;;;5078930;28;20481;-46
2023/07/15 08:17:57;;;;;;;14.60;13.80;;;28.10;54.80;;;;;;5078451;28;20916;-47
2023/07/15 08:20:23;;;;;;;13.23;12.50;;;28.30;53.90;;;;;;5078647;28;20564;-49
2023/07/15 08:22:48;;;;;;;13.10;12.40;;;28.50;53.60;;;;;;5078458;28;20195;-46
2023/07/15 08:25:14;;;;;;;12.93;12.33;;;28.70;53.30;;;;;;5079009;28;20244;-51
2023/07/15 08:27:40;;;;;;;13.67;12.70;;;28.80;52.20;;;;;;5078414;28;20195;-48
2023/07/15 08:30:06;;;;;;;14.10;13.40;;;29.00;52.10;;;;;;5081203;28;20204;-54
2023/07/15 08:32:31;;;;;;;14.23;13.33;;;29.10;51.40;;;;;;5080402;28;20613;-48
2023/07/15 08:35:02;;;;;;;15.03;14.17;;;29.30;50.90;;;;;;5081763;28;20716;-54
2023/07/15 08:37:28;;;;;;;12.77;12.07;;;29.50;51.00;;;;;;5080769;28;20185;-44
2023/07/15 08:39:53;;;;;;;13.20;12.30;;;29.60;48.90;;;;;;5082085;28;20471;-47
2023/07/15 08:42:19;;;;;;;13.53;12.80;;;29.80;48.80;;;;;;5078113;28;20184;-50
2023/07/15 08:44:47;;;;;;;12.77;12.07;;;29.90;47.70;;;;;;5081937;28;20238;-51
2023/07/15 08:47:21;;;;;;;12.60;11.80;;;30.10;48.00;;;;;;5076357;28;20407;-48
2023/07/15 08:49:49;;;;;;;12.63;11.93;;;30.30;47.00;;;;;;5072902;28;20522;-50
2023/07/15 08:52:20;;;;;;;12.60;12.00;;;30.40;46.60;;;;;;5081430;28;20418;-46
2023/07/15 08:54:48;;;;;;;12.90;12.20;;;30.60;44.10;;;;;;5077420;28;20419;-49
2023/07/15 08:57:17;;;;;;;13.20;12.50;;;30.90;43.60;;;;;;5082109;28;20410;-52
2023/07/15 08:59:44;;;;;;;12.50;11.90;;;31.20;41.50;;;;;;5082114;28;20495;-49
2023/07/15 09:02:09;;;;;;;13.00;12.40;;;31.40;40.90;;;;;;5081879;28;20415;-51
2023/07/15 09:04:35;;;;;;;12.23;11.63;;;31.60;39.90;;;;;;5080096;28;20993;-49
2023/07/15 09:07:01;;;;;;;12.00;11.40;;;31.80;39.50;;;;;;5065707;28;20181;-49
2023/07/15 09:09:38;;;;;;;12.47;11.77;;;32.10;37.60;;;;;;5074593;28;20212;-49
2023/07/15 09:12:06;;;;;;;12.27;11.67;;;32.30;37.20;;;;;;5081747;28;20176;-48
2023/07/15 09:14:31;;;;;;;12.17;11.57;;;32.50;36.90;;;;;;5081224;28;20411;-53
2023/07/15 09:17:02;;;;;;;12.77;12.10;;;32.80;34.60;;;;;;5081598;28;20421;-48
2023/07/15 09:19:31;;;;;;;12.00;11.40;;;33.00;33.50;;;;;;5081307;28;20642;-46
2023/07/15 09:22:05;;;;;;;12.23;11.63;;;33.30;32.80;;;;;;5081435;28;20978;-43
2023/07/15 09:24:33;;;;;;;12.93;12.23;;;33.60;31.30;;;;;;5081096;28;20943;-48
2023/07/15 09:27:02;;;;;;;11.73;10.93;;;33.80;31.60;;;;;;5081370;28;20416;-47
2023/07/15 09:29:28;;;;;;;12.33;11.77;;;34.20;30.80;;;;;;5079399;28;21011;-49
2023/07/15 09:31:55;;;;;;;12.57;11.77;;;34.60;30.80;;;;;;5081417;28;20410;-47
2023/07/15 09:34:25;;;;;;;12.33;11.73;;;35.20;28.00;;;;;;5081103;28;20483;-44
2023/07/15 09:36:52;;;;;;;12.10;11.27;;;35.70;27.20;;;;;;5079231;28;20427;-47
2023/07/15 09:39:22;;;;;;;12.63;12.03;;;35.90;26.20;;;;;;5080619;28;20426;-48
2023/07/15 09:42:04;;;;;;;12.27;11.50;;;36.00;25.30;;;;;;5068278;28;21372;-43
2023/07/15 09:44:43;;;;;;;12.10;11.60;;;35.70;25.10;;;;;;5069271;28;20732;-47
2023/07/15 09:47:09;;;;;;;11.73;11.17;;;35.90;25.00;;;;;;5080972;28;20411;-46
2023/07/15 09:49:35;;;;;;;12.10;11.50;;;36.20;22.60;;;;;;5080532;28;20820;-44
2023/07/15 09:52:04;;;;;;;13.03;12.20;;;36.50;23.70;;;;;;5079051;28;20184;-46
2023/07/15 09:54:32;;;;;;;12.30;11.70;;;36.80;23.30;;;;;;5076606;28;20410;-46
2023/07/15 09:57:20;;;;;;;12.97;12.37;;;37.00;22.50;;;;;;5080556;28;20437;-47
2023/07/15 09:59:52;;;;;;;12.80;12.00;;;37.20;23.20;;;;;;5067689;28;20419;-47
2023/07/15 10:02:33;;;;;;;12.27;11.57;;;37.80;22.60;;;;;;5067473;28;20442;-52
2023/07/15 10:05:03;;;;;;;12.37;11.77;;;38.10;19.80;;;;;;5080516;28;20414;-47
2023/07/15 10:07:30;;;;;;;11.67;11.17;;;38.30;18.30;;;;;;5080287;28;20514;-47
2023/07/15 10:09:58;;;;;;;11.60;11.10;;;38.50;17.30;;;;;;5080528;28;20494;-43
2023/07/15 10:12:25;;;;;;;11.60;11.00;;;38.60;17.60;;;;;;5080016;28;20993;-46
2023/07/15 10:14:51;;;;;;;12.43;11.83;;;38.50;17.20;;;;;;5079849;28;20609;-46
2023/07/15 10:17:17;;;;;;;12.50;11.80;;;38.60;16.90;;;;;;5080134;28;20407;-43
2023/07/15 10:19:51;;;;;;;12.37;11.77;;;38.50;16.90;;;;;;5079926;28;20414;-44
2023/07/15 10:22:23;;;;;;;12.40;11.70;;;38.60;16.60;;;;;;5080263;28;20542;-48
2023/07/15 10:24:53;;;;;;;11.40;10.90;;;39.10;16.70;;;;;;5079609;28;20543;-47
2023/07/15 10:27:19;;;;;;;11.40;10.70;;;39.60;15.90;;;;;;5079862;28;21287;-45
2023/07/15 10:29:45;;;;;;;12.07;11.50;;;39.00;15.70;;;;;;5079812;28;20462;-52
2023/07/15 10:32:12;;;;;;;13.60;13.00;;;39.60;16.50;;;;;;5080167;28;20176;-46
2023/07/15 10:34:51;;;;;;;11.83;11.20;;;39.70;16.10;;;;;;5078752;28;20650;-46
2023/07/15 10:37:18;;;;;;;12.07;11.57;;;39.90;16.20;;;;;;5079379;28;20421;-48
2023/07/15 10:39:46;;;;;;;12.97;12.37;;;40.00;16.10;;;;;;5079631;28;20479;-45
2023/07/15 10:42:14;;;;;;;12.83;12.13;;;39.60;16.00;;;;;;5066433;28;20427;-50
2023/07/15 10:44:45;;;;;;;13.43;12.73;;;39.40;16.30;;;;;;5079878;28;20422;-46
2023/07/15 10:47:15;;;;;;;12.27;11.67;;;39.30;16.40;;;;;;5075772;28;20425;-47
2023/07/15 10:49:41;;;;;;;12.77;12.07;;;39.90;16.40;;;;;;5079326;28;20808;-45
2023/07/15 10:52:08;;;;;;;12.30;11.80;;;40.40;16.10;;;;;;5079278;28;20950;-45
2023/07/15 10:54:39;;;;;;;12.63;12.03;;;40.20;16.10;;;;;;5069926;28;20526;-45
2023/07/15 10:57:15;;;;;;;12.90;12.37;;;40.10;16.60;;;;;;5076579;28;20423;-48
2023/07/15 10:59:43;;;;;;;12.50;12.00;;;40.40;16.80;;;;;;5079405;28;20449;-49
2023/07/15 11:02:10;;;;;;;12.80;12.03;;;40.30;16.20;;;;;;5079579;28;20425;-46
2023/07/15 11:04:37;;;;;;;12.60;11.90;;;40.40;16.00;;;;;;5079221;28;20419;-43
2023/07/15 11:07:04;;;;;;;12.70;12.00;;;40.40;16.40;;;;;;5079110;28;20418;-46
2023/07/15 11:09:31;;;;;;;12.37;11.83;;;40.30;15.90;;;;;;5071760;28;20462;-46
2023/07/15 11:11:56;;;;;;;12.37;11.50;;;39.70;16.20;;;;;;5079243;28;20406;-44
2023/07/15 11:14:23;;;;;;;13.07;12.27;;;39.50;15.60;;;;;;5079032;28;20781;-44
2023/07/15 11:16:53;;;;;;;12.20;11.50;;;39.90;15.90;;;;;;5079137;28;20227;-45
2023/07/15 11:19:20;;;;;;;12.90;12.30;;;39.70;16.50;;;;;;5079334;28;20846;-45
2023/07/15 11:21:46;;;;;;;12.47;11.97;;;40.40;15.70;;;;;;5079057;28;20418;-45
2023/07/15 11:24:13;;;;;;;12.33;11.80;;;40.70;15.00;;;;;;5078811;28;20825;-46
2023/07/15 11:26:40;;;;;;;11.80;11.30;;;40.80;15.60;;;;;;5078096;28;20429;-51
2023/07/15 11:29:16;;;;;;;11.93;11.43;;;40.30;15.40;;;;;;5079350;28;20702;-44
2023/07/15 11:31:46;;;;;;;11.70;11.20;;;39.70;15.90;;;;;;5078799;28;20414;-46
2023/07/15 11:34:12;;;;;;;12.30;11.80;;;40.00;16.00;;;;;;5078915;28;20896;-44
2023/07/15 11:36:39;;;;;;;12.23;11.73;;;40.40;16.00;;;;;;5078804;28;20464;-49
2023/07/15 11:39:06;;;;;;;12.50;12.00;;;40.40;15.80;;;;;;5079024;28;20179;-44
2023/07/15 11:41:36;;;;;;;12.60;11.90;;;40.90;15.10;;;;;;5069443;28;20425;-45
2023/07/15 11:44:13;;;;;;;12.80;12.20;;;41.20;14.90;;;;;;5076159;28;20430;-44
2023/07/15 11:46:40;;;;;;;12.17;11.67;;;41.10;14.70;;;;;;5067916;28;20450;-45
2023/07/15 11:49:06;;;;;;;12.53;12.03;;;41.00;14.70;;;;;;5077668;28;21287;-47
2023/07/15 11:51:33;;;;;;;12.93;12.43;;;40.40;15.60;;;;;;5079105;28;20462;-47
2023/07/15 11:53:59;;;;;;;13.33;12.63;;;41.20;15.90;;;;;;5072560;28;20867;-46
2023/07/15 11:56:43;;;;;;;13.00;12.40;;;42.00;14.80;;;;;;5079310;28;20764;-45
2023/07/15 11:59:11;;;;;;;12.73;12.13;;;42.20;14.00;;;;;;5079220;28;20908;-43
2023/07/15 12:01:38;;;;;;;12.60;11.80;;;41.50;14.70;;;;;;5078482;28;20421;-43
2023/07/15 12:04:12;;;;;;;12.80;12.30;;;41.60;14.70;;;;;;5080443;28;20421;-49
2023/07/15 12:06:46;;;;;;;12.93;12.43;;;42.10;15.20;;;;;;5082196;28;21006;-46
2023/07/15 12:09:12;;;;;;;12.07;11.57;;;42.70;13.80;;;;;;5082374;28;20866;-50
2023/07/15 12:11:38;;;;;;;12.77;12.07;;;43.20;13.50;;;;;;5082852;28;20414;-48
2023/07/15 12:14:06;;;;;;;12.57;12.07;;;42.30;13.50;;;;;;5082421;28;20936;-45
2023/07/15 12:16:34;;;;;;;12.77;11.93;;;42.60;13.80;;;;;;5082210;28;20459;-48
2023/07/15 12:19:00;;;;;;;13.43;12.73;;;42.90;14.00;;;;;;5081696;28;20468;-46
2023/07/15 12:21:27;;;;;;;12.47;11.77;;;43.30;12.90;;;;;;5082118;28;20497;-47
2023/07/15 12:23:54;;;;;;;12.13;11.63;;;43.60;12.90;;;;;;5082063;28;20410;-49
2023/07/15 12:26:20;;;;;;;12.50;12.00;;;43.90;13.10;;;;;;5082566;28;20414;-44
2023/07/15 12:28:46;;;;;;;13.07;12.47;;;44.50;13.00;;;;;;5082096;28;20418;-49